Time;durP1;ratioP1;P1;durP2;ratioP2;P2;SDS_P1;SDS_P2;PMS_P1;PMS_P2;Temp;Humidity;BMP_temperature;BMP_pressure;BME280_temperature;BME280_humidity;BME280_pressure;Samples;Min_cycle;Max_cycle;Signal;HPM_P1;HPM_P2
2024/01/26 00:01:49;;;;;;;28.23;15.03;;;;;;;;;;5073668;28;20271;-28
2024/01/26 00:04:14;;;;;;;28.60;14.70;;;;;;;;;;5073981;28;20383;-28
2024/01/26 00:06:39;;;;;;;28.67;14.57;;;;;;;;;;5073819;28;20074;-28
2024/01/26 00:09:11;;;;;;;23.77;13.33;;;;;;;;;;5073508;28;20525;-28
2024/01/26 00:11:37;;;;;;;28.83;14.07;;;;;;;;;;5073937;28;20749;-28
2024/01/26 00:14:02;;;;;;;21.95;13.45;;;;;;;;;;5073388;28;20024;-28
2024/01/26 00:16:27;;;;;;;23.98;12.88;;;;;;;;;;5073432;28;20035;-28
2024/01/26 00:18:53;;;;;;;22.90;13.57;;;;;;;;;;5073372;28;20046;-28
2024/01/26 00:21:18;;;;;;;20.73;12.70;;;;;;;;;;5073160;28;20271;-28
2024/01/26 00:23:43;;;;;;;19.33;12.40;;;;;;;;;;5072743;28;20285;-28
2024/01/26 00:26:08;;;;;;;22.67;12.75;;;;;;;;;;5072383;28;20032;-28
2024/01/26 00:28:34;;;;;;;20.03;12.07;;;;;;;;;;5072568;28;20043;-28
2024/01/26 00:30:59;;;;;;;22.65;12.50;;;;;;;;;;5074025;28;20250;-28
2024/01/26 00:33:24;;;;;;;21.13;12.17;;;;;;;;;;5076943;28;20012;-28
2024/01/26 00:35:49;;;;;;;18.00;11.15;;;;;;;;;;5077012;28;20263;-28
2024/01/26 00:38:15;;;;;;;19.83;11.93;;;;;;;;;;5077920;28;20020;-28
2024/01/26 00:40:40;;;;;;;19.75;11.60;;;;;;;;;;5077579;28;20024;-28
2024/01/26 00:43:05;;;;;;;19.60;10.93;;;;;;;;;;5077206;28;20020;-28
2024/01/26 00:45:30;;;;;;;19.23;10.93;;;;;;;;;;5077798;28;20345;-28
2024/01/26 00:47:55;;;;;;;18.27;11.23;;;;;;;;;;5077137;28;20263;-28
2024/01/26 00:50:20;;;;;;;16.77;10.57;;;;;;;;;;5077138;28;20705;-28
2024/01/26 00:52:46;;;;;;;19.63;10.63;;;;;;;;;;5077384;28;20259;-28
2024/01/26 00:55:11;;;;;;;16.42;10.20;;;;;;;;;;5076999;28;20020;-28
2024/01/26 00:57:36;;;;;;;14.70;9.63;;;;;;;;;;5077528;28;20032;-28
2024/01/26 01:00:07;;;;;;;17.63;10.00;;;;;;;;;;5077178;28;20433;-28
2024/01/26 01:02:32;;;;;;;14.20;9.50;;;;;;;;;;5076622;28;20071;-28
2024/01/26 01:04:57;;;;;;;16.58;10.07;;;;;;;;;;5076795;28;20460;-28
2024/01/26 01:07:22;;;;;;;14.50;9.57;;;;;;;;;;5076720;28;20032;-28
2024/01/26 01:09:47;;;;;;;15.23;9.17;;;;;;;;;;5077232;28;20276;-28
2024/01/26 01:12:12;;;;;;;13.47;8.70;;;;;;;;;;5076806;28;20247;-28
2024/01/26 01:14:40;;;;;;;13.30;8.60;;;;;;;;;;5075076;28;20817;-28
2024/01/26 01:17:05;;;;;;;12.52;8.43;;;;;;;;;;5076524;28;20277;-28
2024/01/26 01:19:30;;;;;;;17.70;8.90;;;;;;;;;;5076455;28;20364;-28
2024/01/26 01:21:56;;;;;;;13.32;8.95;;;;;;;;;;5076472;28;20017;-28
2024/01/26 01:24:21;;;;;;;11.90;8.02;;;;;;;;;;5076642;28;20480;-28
2024/01/26 01:26:46;;;;;;;13.73;8.75;;;;;;;;;;5076388;28;20028;-28
2024/01/26 01:29:11;;;;;;;15.85;8.60;;;;;;;;;;5076872;28;20016;-28
2024/01/26 01:31:36;;;;;;;11.60;7.95;;;;;;;;;;5076269;28;20459;-28
2024/01/26 01:34:02;;;;;;;12.10;7.87;;;;;;;;;;5076846;28;20028;-28
2024/01/26 01:36:28;;;;;;;13.80;8.45;;;;;;;;;;5076501;28;20095;-28
2024/01/26 01:38:53;;;;;;;13.60;8.75;;;;;;;;;;5076161;28;20463;-28
2024/01/26 01:41:18;;;;;;;14.50;8.83;;;;;;;;;;5074884;28;20032;-28
2024/01/26 01:43:44;;;;;;;12.60;8.17;;;;;;;;;;5074968;28;20652;-28
2024/01/26 01:46:09;;;;;;;13.90;9.20;;;;;;;;;;5076279;28;20285;-28
2024/01/26 01:48:34;;;;;;;14.55;9.25;;;;;;;;;;5076234;28;20376;-28
2024/01/26 01:51:00;;;;;;;18.55;9.38;;;;;;;;;;5076519;28;20431;-28
2024/01/26 01:53:25;;;;;;;16.30;9.93;;;;;;;;;;5075940;28;20491;-28
2024/01/26 01:55:51;;;;;;;16.60;9.97;;;;;;;;;;5075825;28;20036;-28
2024/01/26 01:58:17;;;;;;;16.10;9.35;;;;;;;;;;5075801;28;20250;-28
2024/01/26 02:00:42;;;;;;;13.68;8.80;;;;;;;;;;5075892;28;20031;-29
2024/01/26 02:03:08;;;;;;;17.23;9.53;;;;;;;;;;5075644;28;20464;-28
2024/01/26 02:05:34;;;;;;;16.33;9.33;;;;;;;;;;5076174;28;20258;-28
2024/01/26 02:07:59;;;;;;;16.33;9.20;;;;;;;;;;5075912;28;20251;-28
2024/01/26 02:10:24;;;;;;;18.05;8.73;;;;;;;;;;5075550;28;20529;-28
2024/01/26 02:12:49;;;;;;;14.93;8.47;;;;;;;;;;5075530;28;20480;-28
2024/01/26 02:15:15;;;;;;;14.50;8.15;;;;;;;;;;5076053;28;20276;-28
2024/01/26 02:17:40;;;;;;;13.02;8.10;;;;;;;;;;5075783;28;20025;-28
2024/01/26 02:20:05;;;;;;;14.70;7.78;;;;;;;;;;5075250;28;20460;-28
2024/01/26 02:22:31;;;;;;;10.82;7.30;;;;;;;;;;5075186;28;20017;-28
2024/01/26 02:24:56;;;;;;;12.27;6.95;;;;;;;;;;5075895;28;20099;-28
2024/01/26 02:27:22;;;;;;;13.43;7.57;;;;;;;;;;5075327;28;20028;-28
2024/01/26 02:29:47;;;;;;;11.95;7.10;;;;;;;;;;5075232;28;20012;-28
2024/01/26 02:32:12;;;;;;;11.02;7.03;;;;;;;;;;5075224;28;20051;-28
2024/01/26 02:34:38;;;;;;;14.57;7.35;;;;;;;;;;5075489;28;20024;-28
2024/01/26 02:37:03;;;;;;;12.48;6.93;;;;;;;;;;5075019;28;20451;-28
2024/01/26 02:39:29;;;;;;;14.13;7.28;;;;;;;;;;5075085;28;20066;-28
2024/01/26 02:41:54;;;;;;;13.32;7.75;;;;;;;;;;5075234;28;20017;-28
2024/01/26 02:44:19;;;;;;;12.15;6.93;;;;;;;;;;5075191;28;20025;-28
2024/01/26 02:46:45;;;;;;;16.45;6.68;;;;;;;;;;5074880;28;20012;-28
2024/01/26 02:49:11;;;;;;;16.05;7.20;;;;;;;;;;5075162;28;20020;-28
2024/01/26 02:51:36;;;;;;;11.00;7.07;;;;;;;;;;5074809;28;20024;-28
2024/01/26 02:54:01;;;;;;;16.70;7.10;;;;;;;;;;5074819;28;20255;-28
2024/01/26 02:56:26;;;;;;;10.18;6.78;;;;;;;;;;5074921;28;20605;-28
2024/01/26 02:58:51;;;;;;;10.03;6.73;;;;;;;;;;5074709;28;20471;-28
2024/01/26 03:01:16;;;;;;;12.03;7.07;;;;;;;;;;5074462;28;20267;-28
2024/01/26 03:03:42;;;;;;;11.05;6.93;;;;;;;;;;5074776;28;20379;-28
2024/01/26 03:06:11;;;;;;;14.73;6.97;;;;;;;;;;5074824;28;20375;-28
2024/01/26 03:08:36;;;;;;;12.38;7.10;;;;;;;;;;5074689;28;20468;-28
2024/01/26 03:11:02;;;;;;;13.17;6.97;;;;;;;;;;5074874;28;20078;-28
2024/01/26 03:13:27;;;;;;;12.60;6.60;;;;;;;;;;5074407;28;20782;-28
2024/01/26 03:15:52;;;;;;;12.02;7.20;;;;;;;;;;5074671;28;20013;-28
2024/01/26 03:18:17;;;;;;;12.30;8.00;;;;;;;;;;5074537;28;20025;-28
2024/01/26 03:20:43;;;;;;;14.32;7.38;;;;;;;;;;5074176;28;20725;-28
2024/01/26 03:23:08;;;;;;;15.50;7.90;;;;;;;;;;5074378;28;20059;-28
2024/01/26 03:25:33;;;;;;;10.70;7.45;;;;;;;;;;5072899;28;20017;-28
2024/01/26 03:27:59;;;;;;;11.07;7.23;;;;;;;;;;5074118;28;20021;-28
2024/01/26 03:30:24;;;;;;;12.85;7.38;;;;;;;;;;5074314;28;20614;-28
2024/01/26 03:32:49;;;;;;;12.63;8.30;;;;;;;;;;5074033;28;20459;-28
2024/01/26 03:35:15;;;;;;;12.47;7.77;;;;;;;;;;5074533;28;20091;-28
2024/01/26 03:37:40;;;;;;;14.52;8.32;;;;;;;;;;5074219;28;20289;-28
2024/01/26 03:40:05;;;;;;;15.43;8.83;;;;;;;;;;5073820;28;20494;-28
2024/01/26 03:42:31;;;;;;;15.00;8.70;;;;;;;;;;5074001;28;20262;-28
2024/01/26 03:44:56;;;;;;;14.07;8.87;;;;;;;;;;5074122;28;20380;-28
2024/01/26 03:47:21;;;;;;;15.07;9.20;;;;;;;;;;5074282;28;20266;-28
2024/01/26 03:49:46;;;;;;;15.00;9.13;;;;;;;;;;5073622;28;20706;-28
2024/01/26 03:52:12;;;;;;;14.60;9.48;;;;;;;;;;5074186;28;20250;-28
2024/01/26 03:54:37;;;;;;;17.60;9.82;;;;;;;;;;5073801;28;20028;-28
2024/01/26 03:57:02;;;;;;;17.23;9.88;;;;;;;;;;5073551;28;20012;-28
2024/01/26 03:59:27;;;;;;;19.73;11.23;;;;;;;;;;5074110;28;20027;-28
2024/01/26 04:01:52;;;;;;;15.83;10.03;;;;;;;;;;5073694;28;20124;-28
2024/01/26 04:04:18;;;;;;;20.83;10.40;;;;;;;;;;5074072;28;20274;-28
2024/01/26 04:06:43;;;;;;;16.73;10.83;;;;;;;;;;5072892;28;20689;-28
2024/01/26 04:09:09;;;;;;;14.70;10.80;;;;;;;;;;5073713;28;20259;-28
2024/01/26 04:11:34;;;;;;;14.98;10.65;;;;;;;;;;5073651;28;20017;-28
2024/01/26 04:13:59;;;;;;;20.60;11.03;;;;;;;;;;5073781;28;20460;-28
2024/01/26 04:16:25;;;;;;;16.50;10.73;;;;;;;;;;5073454;28;20251;-28
2024/01/26 04:18:50;;;;;;;16.95;11.50;;;;;;;;;;5073694;28;20381;-28
2024/01/26 04:21:15;;;;;;;18.35;11.00;;;;;;;;;;5073375;28;20353;-28
2024/01/26 04:23:40;;;;;;;15.00;10.68;;;;;;;;;;5073906;28;20363;-28
2024/01/26 04:26:06;;;;;;;17.45;11.38;;;;;;;;;;5073641;28;20498;-29
2024/01/26 04:28:31;;;;;;;14.82;10.60;;;;;;;;;;5073511;28;20028;-28
2024/01/26 04:30:56;;;;;;;18.40;11.47;;;;;;;;;;5073882;28;20020;-28
2024/01/26 04:33:21;;;;;;;18.63;11.30;;;;;;;;;;5073327;28;20679;-28
2024/01/26 04:35:46;;;;;;;17.53;11.23;;;;;;;;;;5073787;28;20036;-28
2024/01/26 04:38:11;;;;;;;17.98;11.18;;;;;;;;;;5073313;28;20255;-28
2024/01/26 04:40:38;;;;;;;18.67;11.52;;;;;;;;;;5073741;28;20022;-28
2024/01/26 04:43:04;;;;;;;21.13;12.07;;;;;;;;;;5073082;28;20020;-28
2024/01/26 04:45:30;;;;;;;19.55;11.23;;;;;;;;;;5073376;28;20380;-28
2024/01/26 04:47:55;;;;;;;20.07;12.00;;;;;;;;;;5073140;28;20016;-28
2024/01/26 04:50:20;;;;;;;20.17;11.80;;;;;;;;;;5073183;28;20681;-28
2024/01/26 04:52:45;;;;;;;18.93;12.23;;;;;;;;;;5073610;28;20254;-28
2024/01/26 04:55:10;;;;;;;22.53;11.90;;;;;;;;;;5073080;28;20258;-28
2024/01/26 04:57:35;;;;;;;21.13;12.60;;;;;;;;;;5073022;28;20333;-28
2024/01/26 05:00:01;;;;;;;21.57;12.70;;;;;;;;;;5073298;28;20255;-28
2024/01/26 05:02:26;;;;;;;20.98;12.40;;;;;;;;;;5072819;28;20041;-28
2024/01/26 05:04:51;;;;;;;20.92;12.70;;;;;;;;;;5072936;28;20126;-28
2024/01/26 05:07:17;;;;;;;19.87;12.90;;;;;;;;;;5073476;28;20023;-28
2024/01/26 05:09:42;;;;;;;20.17;11.85;;;;;;;;;;5073215;28;20371;-28
2024/01/26 05:12:07;;;;;;;20.07;12.57;;;;;;;;;;5073110;28;20019;-28
2024/01/26 05:14:34;;;;;;;20.63;12.10;;;;;;;;;;5072889;28;20251;-28
2024/01/26 05:16:59;;;;;;;18.95;12.40;;;;;;;;;;5073975;28;20099;-28
2024/01/26 05:19:25;;;;;;;21.23;11.87;;;;;;;;;;5077131;28;20056;-28
2024/01/26 05:21:50;;;;;;;25.30;12.53;;;;;;;;;;5076517;28;20792;-28
2024/01/26 05:24:15;;;;;;;19.67;12.77;;;;;;;;;;5076945;28;20278;-28
2024/01/26 05:26:40;;;;;;;21.00;12.77;;;;;;;;;;5076354;28;20021;-28
2024/01/26 05:29:08;;;;;;;21.70;13.07;;;;;;;;;;5076652;28;20277;-28
2024/01/26 05:31:34;;;;;;;21.55;12.13;;;;;;;;;;5076865;28;20266;-28
2024/01/26 05:33:59;;;;;;;18.83;12.65;;;;;;;;;;5076610;28;20024;-28
2024/01/26 05:36:24;;;;;;;20.15;12.77;;;;;;;;;;5076793;28;20025;-28
2024/01/26 05:38:49;;;;;;;21.23;12.00;;;;;;;;;;5076137;28;20048;-28
2024/01/26 05:41:14;;;;;;;18.03;12.27;;;;;;;;;;5076133;28;20534;-28
2024/01/26 05:43:40;;;;;;;19.17;12.05;;;;;;;;;;5076317;28;20340;-28
2024/01/26 05:46:05;;;;;;;15.90;11.43;;;;;;;;;;5076629;28;20096;-28
2024/01/26 05:48:30;;;;;;;19.40;12.27;;;;;;;;;;5074788;28;20263;-27
2024/01/26 05:50:56;;;;;;;18.30;12.00;;;;;;;;;;5076567;28;20020;-27
2024/01/26 05:53:21;;;;;;;20.10;12.25;;;;;;;;;;5076214;28;20738;-27
2024/01/26 05:55:46;;;;;;;17.20;11.77;;;;;;;;;;5076413;28;20024;-27
2024/01/26 05:58:12;;;;;;;17.10;11.80;;;;;;;;;;5076092;28;20618;-28
2024/01/26 06:00:37;;;;;;;14.48;10.15;;;;;;;;;;5075809;28;20251;-28
2024/01/26 06:03:02;;;;;;;18.00;11.20;;;;;;;;;;5075521;28;20044;-28
2024/01/26 06:05:27;;;;;;;20.85;11.45;;;;;;;;;;5075606;28;20262;-28
2024/01/26 06:07:52;;;;;;;16.47;11.70;;;;;;;;;;5075094;28;20091;-28
2024/01/26 06:10:17;;;;;;;15.75;10.90;;;;;;;;;;5075179;28;20262;-28
2024/01/26 06:12:44;;;;;;;16.20;10.70;;;;;;;;;;5074253;28;20016;-28
2024/01/26 06:15:09;;;;;;;17.55;10.93;;;;;;;;;;5075071;28;20020;-27
2024/01/26 06:17:35;;;;;;;16.17;10.55;;;;;;;;;;5074936;28;20070;-28
2024/01/26 06:20:00;;;;;;;15.50;10.70;;;;;;;;;;5075183;28;20017;-28
2024/01/26 06:22:25;;;;;;;19.10;10.50;;;;;;;;;;5075333;28;20427;-28
2024/01/26 06:24:50;;;;;;;14.37;10.70;;;;;;;;;;5075550;28;20025;-28
2024/01/26 06:27:15;;;;;;;15.03;10.03;;;;;;;;;;5075800;28;20297;-27
2024/01/26 06:29:40;;;;;;;13.27;9.60;;;;;;;;;;5074611;28;20595;-28
2024/01/26 06:32:06;;;;;;;16.70;9.80;;;;;;;;;;5075317;28;20281;-28
2024/01/26 06:34:31;;;;;;;14.23;9.77;;;;;;;;;;5075401;28;20255;-27
2024/01/26 06:36:56;;;;;;;12.85;9.38;;;;;;;;;;5075181;28;20021;-28
2024/01/26 06:39:21;;;;;;;12.13;8.83;;;;;;;;;;5074917;28;20471;-28
2024/01/26 06:41:46;;;;;;;12.73;9.40;;;;;;;;;;5074920;28;20267;-28
2024/01/26 06:44:14;;;;;;;11.68;8.73;;;;;;;;;;5075091;28;20633;-28
2024/01/26 06:46:39;;;;;;;16.00;10.05;;;;;;;;;;5075185;28;20024;-28
2024/01/26 06:49:04;;;;;;;13.20;9.47;;;;;;;;;;5075398;28;20012;-28
2024/01/26 06:51:29;;;;;;;12.83;9.20;;;;;;;;;;5075268;28;20334;-28
2024/01/26 06:53:56;;;;;;;13.35;9.15;;;;;;;;;;5075212;28;20292;-28
2024/01/26 06:56:21;;;;;;;13.80;9.40;;;;;;;;;;5074972;28;20413;-27
2024/01/26 06:58:46;;;;;;;12.57;9.27;;;;;;;;;;5074595;28;20025;-28
2024/01/26 07:01:12;;;;;;;15.88;9.02;;;;;;;;;;5074855;28;20294;-28
2024/01/26 07:03:37;;;;;;;13.10;8.98;;;;;;;;;;5074684;28;20483;-28
2024/01/26 07:06:02;;;;;;;12.07;7.50;;;;;;;;;;5074432;28;20375;-27
2024/01/26 07:08:27;;;;;;;13.30;8.57;;;;;;;;;;5074411;28;20376;-28
2024/01/26 07:10:52;;;;;;;13.23;8.73;;;;;;;;;;5074920;28;20015;-28
2024/01/26 07:13:18;;;;;;;14.90;8.77;;;;;;;;;;5074463;28;20644;-27
2024/01/26 07:15:43;;;;;;;12.30;8.27;;;;;;;;;;5074262;28;20058;-27
2024/01/26 07:18:08;;;;;;;13.00;8.75;;;;;;;;;;5074374;28;20261;-27
2024/01/26 07:20:33;;;;;;;10.98;8.07;;;;;;;;;;5074337;28;20056;-27
2024/01/26 07:22:58;;;;;;;16.93;8.40;;;;;;;;;;5074037;28;20078;-28
2024/01/26 07:25:24;;;;;;;12.57;8.43;;;;;;;;;;5074627;28;20243;-28
2024/01/26 07:27:49;;;;;;;11.95;8.63;;;;;;;;;;5074482;28;20286;-27
2024/01/26 07:30:17;;;;;;;13.67;8.80;;;;;;;;;;5073952;28;20017;-28
2024/01/26 07:32:42;;;;;;;13.18;8.80;;;;;;;;;;5072645;28;20270;-28
2024/01/26 07:35:07;;;;;;;13.73;8.80;;;;;;;;;;5074179;28;20015;-27
2024/01/26 07:37:32;;;;;;;16.52;9.07;;;;;;;;;;5073996;28;20259;-28
2024/01/26 07:39:58;;;;;;;13.93;8.95;;;;;;;;;;5073001;28;20023;-27
2024/01/26 07:42:23;;;;;;;15.40;9.05;;;;;;;;;;5073434;28;20020;-27
2024/01/26 07:44:48;;;;;;;13.90;9.37;;;;;;;;;;5073659;28;20060;-28
2024/01/26 07:47:13;;;;;;;17.30;9.67;;;;;;;;;;5073116;28;20255;-27
2024/01/26 07:49:38;;;;;;;14.07;9.57;;;;;;;;;;5073693;28;20273;-27
2024/01/26 07:52:04;;;;;;;13.87;9.90;;;;;;;;;;5074172;28;20250;-28
2024/01/26 07:54:29;;;;;;;15.60;10.48;;;;;;;;;;5073766;28;20249;-28
2024/01/26 07:56:54;;;;;;;21.27;10.20;;;;;;;;;;5073799;28;20027;-28
2024/01/26 07:59:20;;;;;;;16.48;10.32;;;;;;;;;;5073801;28;20251;-27
2024/01/26 08:01:45;;;;;;;13.30;9.97;;;;;;;;;;5073690;28;20048;-27
2024/01/26 08:04:10;;;;;;;15.63;10.05;;;;;;;;;;5073589;28;20751;-28
2024/01/26 08:06:35;;;;;;;12.93;9.73;;;;;;;;;;5073486;28;20442;-27
2024/01/26 08:09:00;;;;;;;17.08;8.98;;;;;;;;;;5073449;28;20257;-28
2024/01/26 08:11:25;;;;;;;16.13;8.65;;;;;;;;;;5073719;28;20024;-28
2024/01/26 08:13:51;;;;;;;17.52;8.30;;;;;;;;;;5073935;28;20103;-27
2024/01/26 08:16:16;;;;;;;12.70;7.13;;;;;;;;;;5074046;28;20048;-27
2024/01/26 08:18:41;;;;;;;15.15;6.88;;;;;;;;;;5073645;28;20262;-28
2024/01/26 08:21:07;;;;;;;11.00;5.97;;;;;;;;;;5073395;28;20021;-28
2024/01/26 08:23:32;;;;;;;12.13;5.68;;;;;;;;;;5073456;28;20093;-28
2024/01/26 08:25:57;;;;;;;13.25;5.47;;;;;;;;;;5073361;28;20025;-28
2024/01/26 08:28:22;;;;;;;12.60;4.90;;;;;;;;;;5073252;28;20365;-28
2024/01/26 08:30:48;;;;;;;12.77;4.23;;;;;;;;;;5072992;28;20021;-28
2024/01/26 08:33:13;;;;;;;10.15;4.88;;;;;;;;;;5073200;28;20662;-27
2024/01/26 08:35:38;;;;;;;15.07;4.38;;;;;;;;;;5073446;28;20028;-27
2024/01/26 08:38:03;;;;;;;20.33;4.57;;;;;;;;;;5073206;28;20024;-28
2024/01/26 08:40:29;;;;;;;13.55;4.00;;;;;;;;;;5073458;28;20333;-28
2024/01/26 08:42:54;;;;;;;10.93;3.30;;;;;;;;;;5073293;28;20360;-27
2024/01/26 08:45:19;;;;;;;10.13;3.20;;;;;;;;;;5073019;28;20259;-28
2024/01/26 08:47:44;;;;;;;7.78;2.30;;;;;;;;;;5073277;28;20656;-28
2024/01/26 08:50:09;;;;;;;6.57;2.00;;;;;;;;;;5072852;28;20044;-28
2024/01/26 08:52:35;;;;;;;8.80;1.97;;;;;;;;;;5075390;28;20251;-28
2024/01/26 08:55:00;;;;;;;8.27;2.38;;;;;;;;;;5076688;28;20324;-28
2024/01/26 08:57:25;;;;;;;9.17;2.30;;;;;;;;;;5076574;28;20070;-27
2024/01/26 08:59:51;;;;;;;9.52;2.15;;;;;;;;;;5077100;28;20338;-27
2024/01/26 09:02:17;;;;;;;13.13;2.35;;;;;;;;;;5076657;28;20040;-27
2024/01/26 09:04:42;;;;;;;13.90;2.13;;;;;;;;;;5076108;28;20040;-28
2024/01/26 09:07:07;;;;;;;15.20;2.43;;;;;;;;;;5077314;28;20073;-27
2024/01/26 09:09:33;;;;;;;7.93;1.48;;;;;;;;;;5076630;28;20618;-28
2024/01/26 09:11:59;;;;;;;3.65;0.98;;;;;;;;;;5077378;28;20008;-27
2024/01/26 09:14:24;;;;;;;6.07;1.13;;;;;;;;;;5076859;28;20017;-28
2024/01/26 09:16:50;;;;;;;8.13;1.40;;;;;;;;;;5077124;28;20052;-29
2024/01/26 09:19:16;;;;;;;9.10;2.63;;;;;;;;;;5076460;28;20269;-27
2024/01/26 09:21:41;;;;;;;11.53;2.10;;;;;;;;;;5076790;28;20016;-28
2024/01/26 09:24:06;;;;;;;8.87;1.17;;;;;;;;;;5075949;28;20275;-28
2024/01/26 09:26:31;;;;;;;12.48;1.40;;;;;;;;;;5076462;28;20355;-28
2024/01/26 09:28:56;;;;;;;8.93;2.20;;;;;;;;;;5076110;28;20455;-28
2024/01/26 09:31:22;;;;;;;7.40;1.50;;;;;;;;;;5076396;28;20040;-27
2024/01/26 09:33:47;;;;;;;10.90;1.43;;;;;;;;;;5075950;28;20055;-27
2024/01/26 09:36:12;;;;;;;10.40;1.58;;;;;;;;;;5076120;28;20262;-27
2024/01/26 09:38:37;;;;;;;13.63;1.45;;;;;;;;;;5076180;28;20468;-27
2024/01/26 09:41:02;;;;;;;9.93;1.33;;;;;;;;;;5076151;28;20075;-28
2024/01/26 09:43:28;;;;;;;12.75;1.45;;;;;;;;;;5075449;28;20043;-28
2024/01/26 09:45:53;;;;;;;12.97;1.83;;;;;;;;;;5075200;28;20088;-27
2024/01/26 09:48:19;;;;;;;10.18;1.90;;;;;;;;;;5075948;28;20760;-27
2024/01/26 09:50:50;;;;;;;17.13;1.67;;;;;;;;;;5076232;28;20422;-28
2024/01/26 09:53:16;;;;;;;13.90;2.10;;;;;;;;;;5072750;28;20034;-28
2024/01/26 09:55:41;;;;;;;21.15;2.42;;;;;;;;;;5072760;28;20028;-28
2024/01/26 09:58:07;;;;;;;10.13;1.90;;;;;;;;;;5073172;28;20028;-28
2024/01/26 10:00:32;;;;;;;11.70;1.87;;;;;;;;;;5073394;28;20024;-28
2024/01/26 10:02:57;;;;;;;16.40;1.97;;;;;;;;;;5072870;28;20294;-28
2024/01/26 10:05:22;;;;;;;18.90;2.40;;;;;;;;;;5073225;28;20271;-27
2024/01/26 10:07:47;;;;;;;14.77;2.70;;;;;;;;;;5074280;28;20330;-27
2024/01/26 10:10:13;;;;;;;15.40;2.58;;;;;;;;;;5075624;28;20609;-31
2024/01/26 10:12:40;;;;;;;12.65;2.50;;;;;;;;;;5075466;28;20070;-28
2024/01/26 10:15:10;;;;;;;15.77;2.90;;;;;;;;;;5076138;28;20043;-28
2024/01/26 10:17:35;;;;;;;11.88;2.63;;;;;;;;;;5075770;28;20523;-28
2024/01/26 10:20:14;;;;;;;16.33;2.90;;;;;;;;;;5075508;28;20020;-28
2024/01/26 10:22:40;;;;;;;10.25;2.28;;;;;;;;;;5075702;28;20044;-28
2024/01/26 10:25:06;;;;;;;9.65;2.42;;;;;;;;;;5075202;28;20055;-28
2024/01/26 10:27:32;;;;;;;11.35;2.63;;;;;;;;;;5075389;28;20082;-28
2024/01/26 10:29:57;;;;;;;14.75;2.63;;;;;;;;;;5075844;28;20452;-28
2024/01/26 10:32:26;;;;;;;13.03;2.70;;;;;;;;;;5075802;28;20020;-28
2024/01/26 10:34:53;;;;;;;12.27;2.53;;;;;;;;;;5075308;28;20104;-28
2024/01/26 10:37:19;;;;;;;14.15;2.60;;;;;;;;;;5075659;28;20065;-28
2024/01/26 10:39:45;;;;;;;10.45;2.80;;;;;;;;;;5074885;28;20020;-28
2024/01/26 10:42:10;;;;;;;13.25;2.50;;;;;;;;;;5074996;28;20059;-28
2024/01/26 10:44:38;;;;;;;11.73;2.30;;;;;;;;;;5075548;28;20063;-28
2024/01/26 10:47:04;;;;;;;14.40;2.45;;;;;;;;;;5075079;28;20371;-28
2024/01/26 10:49:30;;;;;;;13.15;2.50;;;;;;;;;;5073807;28;20032;-28
2024/01/26 10:51:56;;;;;;;13.07;2.90;;;;;;;;;;5075341;28;20017;-28
2024/01/26 10:54:23;;;;;;;13.85;2.33;;;;;;;;;;5074605;28;20475;-28
2024/01/26 10:56:48;;;;;;;13.65;2.60;;;;;;;;;;5075329;28;20455;-29
2024/01/26 10:59:16;;;;;;;15.33;2.67;;;;;;;;;;5075341;28;20035;-28
2024/01/26 11:01:41;;;;;;;12.73;2.70;;;;;;;;;;5074427;28;20404;-29
2024/01/26 11:04:07;;;;;;;12.20;2.80;;;;;;;;;;5074816;28;20024;-28
2024/01/26 11:06:34;;;;;;;16.23;2.75;;;;;;;;;;5074990;28;20028;-28
2024/01/26 11:09:00;;;;;;;11.43;2.53;;;;;;;;;;5074477;28;20387;-28
2024/01/26 11:11:45;;;;;;;14.43;2.97;;;;;;;;;;5074611;28;20025;-28
2024/01/26 11:14:11;;;;;;;10.50;2.50;;;;;;;;;;5073896;28;20029;-28
2024/01/26 11:16:40;;;;;;;16.00;3.03;;;;;;;;;;5074158;28;20020;-28
2024/01/26 11:19:06;;;;;;;21.42;3.38;;;;;;;;;;5074515;28;20028;-28
2024/01/26 11:21:42;;;;;;;16.67;2.67;;;;;;;;;;5074237;28;20021;-28
2024/01/26 11:24:15;;;;;;;15.40;2.83;;;;;;;;;;5074363;28;20074;-28
2024/01/26 11:26:54;;;;;;;13.15;2.90;;;;;;;;;;5074115;28;20028;-28
2024/01/26 11:29:19;;;;;;;15.85;3.10;;;;;;;;;;5074115;28;20105;-28
2024/01/26 11:31:44;;;;;;;14.27;2.83;;;;;;;;;;5074025;28;20163;-28
2024/01/26 11:34:20;;;;;;;15.30;2.78;;;;;;;;;;5074475;28;20267;-28
2024/01/26 11:36:46;;;;;;;17.20;2.70;;;;;;;;;;5073901;28;20046;-28
2024/01/26 11:39:15;;;;;;;17.00;2.95;;;;;;;;;;5072069;28;20017;-28
2024/01/26 11:41:47;;;;;;;16.50;2.88;;;;;;;;;;5072225;28;20352;-28
2024/01/26 11:44:17;;;;;;;17.95;3.20;;;;;;;;;;5073442;28;20016;-28
2024/01/26 11:46:43;;;;;;;16.85;2.95;;;;;;;;;;5073518;28;20321;-28
2024/01/26 11:49:08;;;;;;;16.90;3.27;;;;;;;;;;5073582;28;20023;-28
2024/01/26 11:51:33;;;;;;;19.97;3.30;;;;;;;;;;5072999;28;20266;-28
2024/01/26 11:53:59;;;;;;;22.85;3.53;;;;;;;;;;5071857;28;20262;-28
2024/01/26 11:56:24;;;;;;;16.58;2.83;;;;;;;;;;5071717;28;20025;-28
2024/01/26 11:58:49;;;;;;;20.63;3.00;;;;;;;;;;5072459;28;20025;-28
2024/01/26 12:01:14;;;;;;;25.00;3.47;;;;;;;;;;5073239;28;20773;-28
2024/01/26 12:03:40;;;;;;;15.73;2.87;;;;;;;;;;5072958;28;20293;-28
2024/01/26 12:06:06;;;;;;;21.40;2.78;;;;;;;;;;5073532;28;20013;-28
2024/01/26 12:08:31;;;;;;;22.57;3.60;;;;;;;;;;5073475;28;20009;-28
2024/01/26 12:10:57;;;;;;;19.35;3.03;;;;;;;;;;5073672;28;20266;-27
2024/01/26 12:13:22;;;;;;;18.88;3.67;;;;;;;;;;5073401;28;20058;-27
2024/01/26 12:15:49;;;;;;;19.10;3.00;;;;;;;;;;5073400;28;20028;-27
2024/01/26 12:18:15;;;;;;;21.75;2.97;;;;;;;;;;5073333;28;20020;-27
2024/01/26 12:20:41;;;;;;;16.33;2.70;;;;;;;;;;5073341;28;20426;-27
2024/01/26 12:23:19;;;;;;;18.03;2.70;;;;;;;;;;5073278;28;20095;-27
2024/01/26 12:25:44;;;;;;;24.63;3.63;;;;;;;;;;5073638;28;20797;-27
2024/01/26 12:28:09;;;;;;;16.15;2.60;;;;;;;;;;5072338;28;20048;-27
2024/01/26 12:30:35;;;;;;;24.77;3.55;;;;;;;;;;5072249;28;20104;-27
2024/01/26 12:33:04;;;;;;;25.55;3.33;;;;;;;;;;5072596;28;20021;-28
2024/01/26 12:35:31;;;;;;;12.38;2.75;;;;;;;;;;5073053;28;20032;-27
2024/01/26 12:37:57;;;;;;;17.23;2.65;;;;;;;;;;5073076;28;20013;-27
2024/01/26 12:40:22;;;;;;;15.00;2.40;;;;;;;;;;5073096;28;20078;-27
2024/01/26 12:42:47;;;;;;;13.53;2.43;;;;;;;;;;5073220;28;20024;-27
2024/01/26 12:45:12;;;;;;;20.80;2.70;;;;;;;;;;5073025;28;20361;-27
2024/01/26 12:47:37;;;;;;;20.58;2.55;;;;;;;;;;5073003;28;20341;-27
2024/01/26 12:50:02;;;;;;;15.90;2.83;;;;;;;;;;5073092;28;20052;-27
2024/01/26 12:52:28;;;;;;;19.25;2.30;;;;;;;;;;5073617;28;20247;-27
2024/01/26 12:54:55;;;;;;;15.10;2.55;;;;;;;;;;5073205;28;20457;-27
2024/01/26 12:57:20;;;;;;;15.85;2.53;;;;;;;;;;5073287;28;20043;-27
2024/01/26 12:59:45;;;;;;;13.17;2.10;;;;;;;;;;5072942;28;20013;-27
2024/01/26 13:02:10;;;;;;;9.63;2.37;;;;;;;;;;5072944;28;20307;-27
2024/01/26 13:04:35;;;;;;;14.75;2.45;;;;;;;;;;5072724;28;20283;-27
2024/01/26 13:07:01;;;;;;;14.23;2.28;;;;;;;;;;5072873;28;20075;-27
2024/01/26 13:09:26;;;;;;;13.10;2.13;;;;;;;;;;5072813;28;20047;-27
2024/01/26 13:11:54;;;;;;;14.73;2.38;;;;;;;;;;5073071;28;20073;-27
2024/01/26 13:14:19;;;;;;;15.65;2.20;;;;;;;;;;5072850;28;20016;-27
2024/01/26 13:16:44;;;;;;;18.35;2.30;;;;;;;;;;5072781;28;20044;-27
2024/01/26 13:19:09;;;;;;;11.57;1.93;;;;;;;;;;5073229;28;20119;-27
2024/01/26 13:21:34;;;;;;;17.95;2.50;;;;;;;;;;5072752;28;20250;-28
2024/01/26 13:24:00;;;;;;;11.97;2.23;;;;;;;;;;5072669;28;20028;-27
2024/01/26 13:26:25;;;;;;;16.30;3.00;;;;;;;;;;5073305;28;20246;-27
2024/01/26 13:28:50;;;;;;;15.27;2.40;;;;;;;;;;5072579;28;20247;-27
2024/01/26 13:31:16;;;;;;;19.27;2.33;;;;;;;;;;5072514;28;20023;-27
2024/01/26 13:33:41;;;;;;;17.85;2.60;;;;;;;;;;5072683;28;20255;-27
2024/01/26 13:36:06;;;;;;;16.33;2.45;;;;;;;;;;5072372;28;20024;-27
2024/01/26 13:38:32;;;;;;;15.57;2.03;;;;;;;;;;5072931;28;20102;-27
2024/01/26 13:40:57;;;;;;;10.18;2.40;;;;;;;;;;5076000;28;20065;-29
2024/01/26 13:43:23;;;;;;;18.85;3.08;;;;;;;;;;5076339;28;20063;-27
2024/01/26 13:45:48;;;;;;;18.50;2.72;;;;;;;;;;5076086;28;20146;-27
2024/01/26 13:48:13;;;;;;;20.50;2.60;;;;;;;;;;5076267;28;20021;-27
2024/01/26 13:50:40;;;;;;;18.00;2.80;;;;;;;;;;5076008;28;20150;-27
2024/01/26 13:53:05;;;;;;;18.98;2.47;;;;;;;;;;5075836;28;20020;-27
2024/01/26 13:55:30;;;;;;;14.93;3.88;;;;;;;;;;5075756;28;20016;-27
2024/01/26 13:57:56;;;;;;;20.27;3.13;;;;;;;;;;5075901;28;20016;-27
2024/01/26 14:00:22;;;;;;;15.40;3.17;;;;;;;;;;5075498;28;20298;-27
2024/01/26 14:02:47;;;;;;;14.98;2.03;;;;;;;;;;5073722;28;20283;-28
2024/01/26 14:05:12;;;;;;;14.80;2.50;;;;;;;;;;5076017;28;20017;-27
2024/01/26 14:07:37;;;;;;;19.98;2.92;;;;;;;;;;5076218;28;20503;-27
2024/01/26 14:10:03;;;;;;;12.73;2.33;;;;;;;;;;5075650;28;20021;-27
2024/01/26 14:12:29;;;;;;;19.30;2.38;;;;;;;;;;5075441;28;20280;-27
2024/01/26 14:14:55;;;;;;;19.45;2.90;;;;;;;;;;5075556;28;20048;-27
2024/01/26 14:17:21;;;;;;;19.83;2.95;;;;;;;;;;5075799;28;20387;-27